Arlington, Mississippi
Current Conditions -  °F | °C
As of 8:55 PM on Wednesday 22 Oct 2014 (Local Time) from K1R7 Reporting Station
Clear Clear  
Wind Chill: 61°   Ceiling: Unl
Heat Index: 61°   Visibility: 10mi
Dew Point: 50°   Wind: 6mph
Humidity: 68%   Direction: 20°NNE
Pressure: 30.11"   Gusts: NA
Location:  31.4439°N, 90.4692°W
Report Text: K1R7 230155Z AUTO 02005KT 10SM CLR 16/10 A3011 RMK AO2
Loading
Personal Weather Stations






























Interactive Weather Map
Tropical Storm Tracking
New forecast layout! Learn more

10-Day Weather Forecast

Advertisements
Track Severe Weather on mobile